Charter Quote
Worldwide +1-877-727-2538 Call
Select Language Lang
SAFETY RELIABILITY EXPERIENCE

Gilze Rijen Airport (EHGR) - Jet Charter Services

AIRPORT INFORMATION
ICAOEHGR
IATAGLZ
LOCATIONGilze Rijen, Netherlands
FACILITY TYPEAIRPORT
Runway Length (ft) Width (ft) Surface Type Elevation (ft)
28/10 9118 148 ASP 48.98361
20/02 6549 98 ASP 48.98361

At Paramount Business Jets you can hire chartered private jets to and from Gilze Rijen Airport with as little as 4 hours of notice. All flights booked via Paramount Business Jets are operated by certified direct air carriers that meet and exceed the FAA part 135 and 121 protocol or a foreign equivalent safety authority. Furthermore, Paramount Business Jets subscribes to ARGUS for their third party safety checks of operators, aircraft, and crews prior each and every flight to and from Gilze Rijen Airport and worldwide.

  • Quote a trip using Gilze Rijen Airport or call us 24/7 - 365 days a year at +1-877-727-2538.
Questions? Call +1-877-727-2538

METAR Weather Data at Gilze Rijen Airport, EHGR, GLZ

STATIONEHGR
OBSERVEDTue Mar 19, 03:55 UTC
NOWTue Mar 19, 03:58 UTC
AGE3 min ago
WINDvaries at 2 mph
VISIBILITY16 miles
CLOUDSscattered clouds
TEMP30°F (-1°C)
DEWPT28°F (-2°C)
HUMIDITY93%
BAROMETER1026 hPa (30.3 in Hg)
METAREHGR 190355Z AUTO VRB02KT 9999 FEW029 SCT041 M01/M02 Q1026 BLU

Call us on +1-877-727-2538 (24 Hours) to Hire a Private Jet or Get a Quick Quote.

Find Airports Near any Location

Processing
...